createdAt,value
2023-06-26T00:00:55.828Z,78.60
2023-06-26T00:03:30.305Z,78.80
2023-06-26T00:06:02.612Z,79.00
2023-06-26T00:08:34.794Z,79.30
2023-06-26T00:11:09.514Z,79.80
2023-06-26T00:13:41.662Z,80.10
2023-06-26T00:16:14.075Z,80.20
2023-06-26T00:18:46.224Z,80.50
2023-06-26T00:21:18.463Z,80.80
2023-06-26T00:23:50.676Z,81.20
2023-06-26T00:26:25.652Z,81.40
2023-06-26T00:28:57.892Z,81.90
2023-06-26T00:31:30.080Z,82.30
2023-06-26T00:34:02.789Z,82.80
2023-06-26T00:36:34.909Z,83.30
2023-06-26T00:39:07.087Z,83.70
2023-06-26T00:41:41.834Z,84.50
2023-06-26T00:44:13.939Z,85.10
2023-06-26T00:46:46.523Z,85.20
2023-06-26T00:49:18.826Z,85.20
2023-06-26T00:51:51.366Z,85.30
2023-06-26T00:54:23.994Z,85.40
2023-06-26T00:56:58.801Z,85.50
2023-06-26T00:59:30.999Z,85.60
2023-06-26T01:02:03.265Z,85.60
2023-06-26T01:04:38.214Z,85.70
2023-06-26T01:07:10.492Z,86.00
2023-06-26T01:09:43.133Z,86.40
2023-06-26T01:12:17.856Z,86.70
2023-06-26T01:14:50.005Z,86.90
2023-06-26T01:17:22.844Z,86.80
2023-06-26T01:19:55.586Z,87.10
2023-06-26T01:22:33.019Z,87.60
2023-06-26T01:25:14.334Z,87.70
2023-06-26T01:27:51.706Z,87.90
2023-06-26T01:30:24.305Z,88.30
2023-06-26T01:32:56.553Z,88.00
2023-06-26T01:35:29.783Z,89.20
2023-06-26T01:38:15.492Z,89.80
2023-06-26T01:40:48.223Z,90.10
2023-06-26T01:43:29.230Z,90.20
2023-06-26T01:46:07.370Z,90.20
2023-06-26T01:48:46.717Z,90.30
2023-06-26T01:51:23.188Z,90.60
2023-06-26T01:53:58.095Z,90.80
2023-06-26T01:56:31.380Z,90.90
2023-06-26T01:59:08.234Z,91.00
2023-06-26T02:01:40.909Z,91.10
2023-06-26T02:04:13.110Z,91.10
2023-06-26T02:06:45.266Z,91.10
2023-06-26T02:09:17.469Z,91.50
2023-06-26T02:11:49.713Z,91.70
2023-06-26T02:14:24.466Z,92.00
2023-06-26T02:16:56.591Z,92.20
2023-06-26T02:19:28.897Z,92.20
2023-06-26T02:22:01.034Z,92.30
2023-06-26T02:24:33.826Z,92.30
2023-06-26T02:27:06.213Z,92.30
2023-06-26T02:29:41.236Z,92.40
2023-06-26T02:32:13.442Z,92.60
2023-06-26T02:34:45.631Z,92.80
2023-06-26T02:37:17.929Z,92.80
2023-06-26T02:39:50.067Z,92.80
2023-06-26T02:42:22.459Z,92.70
2023-06-26T02:44:57.507Z,92.80
2023-06-26T02:47:29.688Z,93.00
2023-06-26T02:50:01.841Z,93.00
2023-06-26T02:52:34.265Z,93.20
2023-06-26T02:55:07.320Z,93.20
2023-06-26T02:57:39.570Z,93.40
2023-06-26T03:00:16.452Z,93.70
2023-06-26T03:02:48.637Z,94.00
2023-06-26T03:05:20.822Z,94.20
2023-06-26T03:07:52.941Z,94.40
2023-06-26T03:10:25.113Z,94.50
2023-06-26T03:12:57.229Z,94.70
2023-06-26T03:15:31.951Z,94.90
2023-06-26T03:18:04.323Z,95.00
2023-06-26T03:20:36.608Z,95.10
2023-06-26T03:23:08.915Z,95.10
2023-06-26T03:25:41.029Z,95.30
2023-06-26T03:28:13.261Z,95.40
2023-06-26T03:30:48.349Z,95.50
2023-06-26T03:33:20.480Z,95.60
2023-06-26T03:35:52.603Z,95.70
2023-06-26T03:38:25.824Z,95.80
2023-06-26T03:40:58.110Z,95.90
2023-06-26T03:43:30.419Z,96.20
2023-06-26T03:46:05.249Z,96.50
2023-06-26T03:48:38.953Z,96.70
2023-06-26T03:51:11.219Z,96.80
2023-06-26T03:53:43.305Z,97.00
2023-06-26T03:56:15.464Z,97.00
2023-06-26T03:58:47.623Z,97.00
2023-06-26T04:01:23.093Z,97.00
2023-06-26T04:03:55.447Z,97.00
2023-06-26T04:06:27.667Z,97.00
2023-06-26T04:08:59.898Z,96.90
2023-06-26T04:11:34.664Z,97.30
2023-06-26T04:14:06.977Z,97.70
2023-06-26T04:16:41.656Z,98.00
2023-06-26T04:19:15.059Z,98.20
2023-06-26T04:21:47.728Z,98.70
2023-06-26T04:24:19.920Z,98.80
2023-06-26T04:26:52.057Z,99.10
2023-06-26T04:29:26.770Z,99.40
2023-06-26T04:32:01.719Z,99.60
2023-06-26T04:34:35.218Z,99.70
2023-06-26T04:37:07.435Z,99.90
2023-06-26T04:39:39.710Z,99.90
2023-06-26T04:42:15.346Z,99.90
2023-06-26T04:44:47.477Z,99.90
2023-06-26T04:47:22.404Z,99.90
2023-06-26T04:49:54.589Z,99.90
2023-06-26T04:52:27.806Z,99.90
2023-06-26T04:54:59.878Z,99.90
2023-06-26T04:57:32.173Z,99.90
2023-06-26T05:00:10.387Z,99.90
2023-06-26T05:02:45.385Z,99.90
2023-06-26T05:05:17.779Z,99.90
2023-06-26T05:07:49.890Z,99.90
2023-06-26T05:10:22.313Z,99.90
2023-06-26T05:12:54.500Z,99.90
2023-06-26T05:15:27.135Z,99.90
2023-06-26T05:18:02.038Z,99.90
2023-06-26T05:20:35.329Z,99.90
2023-06-26T05:23:07.872Z,99.90
2023-06-26T05:25:41.220Z,99.90
2023-06-26T05:28:16.704Z,99.90
2023-06-26T05:30:49.571Z,99.90
2023-06-26T05:33:26.280Z,99.90
2023-06-26T05:36:00.476Z,99.90
2023-06-26T05:38:33.246Z,99.90
2023-06-26T05:41:06.034Z,99.90
2023-06-26T05:43:38.161Z,99.90
2023-06-26T05:46:10.269Z,99.90
2023-06-26T05:48:45.027Z,99.80
2023-06-26T05:51:17.897Z,99.50
2023-06-26T05:53:51.143Z,99.20
2023-06-26T05:56:24.103Z,98.80
2023-06-26T05:58:56.662Z,98.40
2023-06-26T06:01:28.819Z,98.10
2023-06-26T06:04:03.612Z,97.80
2023-06-26T06:06:35.802Z,97.40
2023-06-26T06:09:07.897Z,97.00
2023-06-26T06:11:40.031Z,97.10
2023-06-26T06:14:12.285Z,96.50
2023-06-26T06:16:44.463Z,96.10
2023-06-26T06:19:19.200Z,95.60
2023-06-26T06:21:51.362Z,95.10
2023-06-26T06:24:23.545Z,94.40
2023-06-26T06:26:55.726Z,94.00
2023-06-26T06:29:27.857Z,93.90
2023-06-26T06:32:00.178Z,93.60
2023-06-26T06:34:34.910Z,93.10
2023-06-26T06:37:07.195Z,92.70
2023-06-26T06:39:39.397Z,92.40
2023-06-26T06:42:11.525Z,92.20
2023-06-26T06:44:43.703Z,92.10
2023-06-26T06:47:15.895Z,92.30
2023-06-26T06:49:50.746Z,92.30
2023-06-26T06:52:23.046Z,92.20
2023-06-26T06:54:56.607Z,92.10
2023-06-26T06:57:28.843Z,91.80
2023-06-26T07:00:01.086Z,91.20
2023-06-26T07:02:33.326Z,90.90
2023-06-26T07:05:08.362Z,90.50
2023-06-26T07:07:40.808Z,89.70
2023-06-26T07:10:14.869Z,88.10
2023-06-26T07:12:47.091Z,87.00
2023-06-26T07:15:19.193Z,85.40
2023-06-26T07:17:51.444Z,84.60
2023-06-26T07:20:26.345Z,81.20
2023-06-26T07:22:58.616Z,76.80
2023-06-26T07:25:30.777Z,74.80
2023-06-26T07:28:03.036Z,73.70
2023-06-26T07:30:35.148Z,73.70
2023-06-26T07:33:07.525Z,72.60
2023-06-26T07:35:42.395Z,72.00
2023-06-26T07:38:14.596Z,69.80
2023-06-26T07:40:46.714Z,68.60
2023-06-26T07:43:18.910Z,68.10
2023-06-26T07:45:52.620Z,68.00
2023-06-26T07:48:24.720Z,67.10
2023-06-26T07:50:59.444Z,67.30
2023-06-26T07:53:31.589Z,66.20
2023-06-26T07:56:03.862Z,65.80
2023-06-26T07:58:36.301Z,65.40
2023-06-26T08:01:10.004Z,64.70
2023-06-26T08:03:42.783Z,65.10
2023-06-26T08:06:17.728Z,63.80
2023-06-26T08:08:49.960Z,63.70
2023-06-26T08:11:22.085Z,63.90
2023-06-26T08:13:54.256Z,64.00
2023-06-26T08:16:26.454Z,63.20
2023-06-26T08:18:58.614Z,63.80
2023-06-26T08:21:34.796Z,63.30
2023-06-26T08:24:07.014Z,62.40
2023-06-26T08:26:39.176Z,61.40
2023-06-26T08:29:12.756Z,61.00
2023-06-26T08:31:45.392Z,60.70
2023-06-26T08:34:17.648Z,60.50
2023-06-26T08:36:52.437Z,59.90
2023-06-26T08:39:24.705Z,59.70
2023-06-26T08:41:56.904Z,59.90
2023-06-26T08:44:29.187Z,59.50
2023-06-26T08:47:01.970Z,58.30
2023-06-26T08:49:44.107Z,58.20
2023-06-26T08:52:26.450Z,58.00
2023-06-26T08:55:01.171Z,58.10
2023-06-26T08:57:34.166Z,57.90
2023-06-26T09:00:09.822Z,57.00
2023-06-26T09:02:44.957Z,56.80
2023-06-26T09:05:18.981Z,56.50
2023-06-26T09:07:59.146Z,56.30
2023-06-26T09:10:31.654Z,56.50
2023-06-26T09:13:07.523Z,56.40
2023-06-26T09:15:45.558Z,56.10
2023-06-26T09:18:22.597Z,56.30
2023-06-26T09:20:55.867Z,56.50
2023-06-26T09:23:31.816Z,56.60
2023-06-26T09:26:05.137Z,57.00
2023-06-26T09:28:37.429Z,56.30
2023-06-26T09:31:11.443Z,55.30
2023-06-26T09:33:44.484Z,55.30
2023-06-26T09:36:22.782Z,55.40
2023-06-26T09:38:58.127Z,55.10
2023-06-26T09:41:32.089Z,54.90
2023-06-26T09:44:05.583Z,54.50
2023-06-26T09:46:39.677Z,55.20
2023-06-26T09:49:12.614Z,55.00
2023-06-26T09:51:44.816Z,54.80
2023-06-26T09:54:23.188Z,54.80
2023-06-26T09:56:57.197Z,55.20
2023-06-26T09:59:29.761Z,56.00
2023-06-26T10:02:02.032Z,56.20
2023-06-26T10:04:34.858Z,55.60
2023-06-26T10:07:10.051Z,56.10
2023-06-26T10:09:47.680Z,56.30
2023-06-26T10:12:27.796Z,55.80
2023-06-26T10:15:01.770Z,55.80
2023-06-26T10:17:37.655Z,56.50
2023-06-26T10:20:11.145Z,57.50
2023-06-26T10:22:46.401Z,57.60
2023-06-26T10:25:22.415Z,57.70
2023-06-26T10:27:58.357Z,57.70
2023-06-26T10:30:34.332Z,57.90
2023-06-26T10:33:07.180Z,57.90
2023-06-26T10:35:43.888Z,57.40
2023-06-26T10:38:16.113Z,57.90
2023-06-26T10:40:51.625Z,57.70
2023-06-26T10:43:31.852Z,57.60
2023-06-26T10:46:04.056Z,58.00
2023-06-26T10:49:02.148Z,57.90
2023-06-26T10:51:34.634Z,58.40
2023-06-26T10:54:06.819Z,58.70
2023-06-26T10:56:46.470Z,59.60
2023-06-26T10:59:20.558Z,59.40
2023-06-26T11:01:57.354Z,59.10
2023-06-26T11:04:45.464Z,59.30
2023-06-26T11:07:20.344Z,59.20
2023-06-26T11:09:56.531Z,60.30
2023-06-26T11:12:38.928Z,59.20
2023-06-26T11:15:11.822Z,58.60
2023-06-26T11:17:44.908Z,59.00
2023-06-26T11:20:19.645Z,58.50
2023-06-26T11:22:54.576Z,58.20
2023-06-26T11:25:27.261Z,58.10
2023-06-26T11:27:59.619Z,58.40
2023-06-26T11:30:35.215Z,58.80
2023-06-26T11:33:09.074Z,59.00
2023-06-26T11:36:09.862Z,58.10
2023-06-26T11:38:42.099Z,57.90
2023-06-26T11:41:18.886Z,58.20
2023-06-26T11:43:51.965Z,58.00
2023-06-26T11:46:24.448Z,58.00
2023-06-26T11:48:56.848Z,57.70
2023-06-26T11:51:31.788Z,58.20
2023-06-26T11:54:05.332Z,58.80
2023-06-26T11:56:37.773Z,59.10
2023-06-26T11:59:14.119Z,58.60
2023-06-26T12:01:46.683Z,58.30
2023-06-26T12:04:21.027Z,57.30
2023-06-26T12:06:58.596Z,57.80
2023-06-26T12:09:31.928Z,56.50
2023-06-26T12:12:05.534Z,55.30
2023-06-26T12:14:38.770Z,54.00
2023-06-26T12:17:16.878Z,54.40
2023-06-26T12:19:49.559Z,54.20
2023-06-26T12:22:24.612Z,54.00
2023-06-26T12:24:58.865Z,53.00
2023-06-26T12:27:31.676Z,52.90
2023-06-26T12:30:08.611Z,52.40
2023-06-26T12:32:41.127Z,51.40
2023-06-26T12:35:13.482Z,51.70
2023-06-26T12:37:48.515Z,50.80
2023-06-26T12:40:24.378Z,50.80
2023-06-26T12:42:57.234Z,50.60
2023-06-26T12:45:39.224Z,50.20
2023-06-26T12:48:13.450Z,49.50
2023-06-26T12:50:46.331Z,49.50
2023-06-26T12:53:23.714Z,49.90
2023-06-26T12:55:56.053Z,49.90
2023-06-26T12:58:29.837Z,49.70
2023-06-26T13:01:06.161Z,49.90
2023-06-26T13:03:38.563Z,49.90
2023-06-26T13:06:13.346Z,49.30
2023-06-26T13:08:48.256Z,49.70
2023-06-26T13:11:26.793Z,49.00
2023-06-26T13:14:09.603Z,48.40
2023-06-26T13:16:48.499Z,48.20
2023-06-26T13:19:21.621Z,48.30
2023-06-26T13:21:54.826Z,49.20
2023-06-26T13:24:31.600Z,48.50
2023-06-26T13:27:09.002Z,47.90
2023-06-26T13:29:43.861Z,47.70
2023-06-26T13:32:16.154Z,47.50
2023-06-26T13:34:49.876Z,47.90
2023-06-26T13:37:22.407Z,48.30
2023-06-26T13:39:59.366Z,48.00
2023-06-26T13:42:34.730Z,46.80
2023-06-26T13:45:26.558Z,47.00
2023-06-26T13:48:03.703Z,46.70
2023-06-26T13:53:21.617Z,46.80
2023-06-26T13:55:57.522Z,46.10
2023-06-26T13:58:36.523Z,45.60
2023-06-26T14:01:13.188Z,45.50
2023-06-26T14:03:48.272Z,45.60
2023-06-26T14:06:20.659Z,45.80
2023-06-26T14:09:08.285Z,45.90
2023-06-26T14:11:46.220Z,46.00
2023-06-26T14:14:27.382Z,47.00
2023-06-26T14:17:12.360Z,47.10
2023-06-26T14:19:47.880Z,46.30
2023-06-26T14:22:21.731Z,46.70
2023-06-26T14:25:08.590Z,45.50
2023-06-26T14:27:45.456Z,45.10
2023-06-26T14:38:01.465Z,44.50
2023-06-26T14:40:33.903Z,44.00
2023-06-26T14:43:13.076Z,44.40
2023-06-26T14:50:28.705Z,44.20
2023-06-26T14:52:14.865Z,44.30
2023-06-26T14:55:01.065Z,44.40
2023-06-26T15:26:09.042Z,44.10
2023-06-26T15:28:41.316Z,43.50
2023-06-26T15:31:13.704Z,44.10
2023-06-26T15:33:46.521Z,44.00
2023-06-26T15:36:20.849Z,43.80
2023-06-26T15:38:53.146Z,43.00
2023-06-26T15:41:28.321Z,43.30
2023-06-26T15:44:00.634Z,43.30
2023-06-26T15:46:33.075Z,43.20
2023-06-26T15:49:06.700Z,43.60
2023-06-26T15:51:39.141Z,41.60
2023-06-26T16:04:47.132Z,39.90
2023-06-26T16:07:19.684Z,38.50
2023-06-26T16:10:03.859Z,38.90
2023-06-26T16:12:36.196Z,38.40
2023-06-26T16:15:09.101Z,37.80
2023-06-26T16:17:41.369Z,37.70
2023-06-26T16:20:19.241Z,37.80
2023-06-26T16:22:51.511Z,37.80
2023-06-26T16:25:23.782Z,36.60
2023-06-26T16:28:00.596Z,36.50
2023-06-26T16:30:32.950Z,36.70
2023-06-26T16:33:07.247Z,36.50
2023-06-26T16:35:42.352Z,36.50
2023-06-26T16:38:14.921Z,37.30
2023-06-26T16:40:47.135Z,36.70
2023-06-26T16:43:19.325Z,36.50
2023-06-26T16:45:51.721Z,36.60
2023-06-26T16:48:29.700Z,37.20
2023-06-26T16:51:12.720Z,36.90
2023-06-26T17:00:42.540Z,37.00
2023-06-26T17:19:39.308Z,38.10
2023-06-26T17:22:11.580Z,37.90
2023-06-26T17:32:22.265Z,38.60
2023-06-26T17:35:29.980Z,38.70
2023-06-26T17:41:27.884Z,39.50
2023-06-26T17:44:03.550Z,39.80
2023-06-26T17:46:48.178Z,40.00
2023-06-26T17:49:30.496Z,40.10
2023-06-26T17:52:06.028Z,40.70
2023-06-26T17:54:49.104Z,40.70
2023-06-26T18:00:58.231Z,41.30
2023-06-26T18:03:47.845Z,41.40
2023-06-26T18:14:35.602Z,41.90
2023-06-26T18:17:17.871Z,41.60
2023-06-26T18:20:13.993Z,41.90
2023-06-26T18:22:46.735Z,41.70
2023-06-26T18:25:19.081Z,41.90
2023-06-26T18:27:54.630Z,41.90
2023-06-26T18:31:38.496Z,41.90
2023-06-26T18:34:13.201Z,42.10
2023-06-26T18:36:52.009Z,42.60
2023-06-26T18:39:30.484Z,42.90
2023-06-26T18:42:05.026Z,42.80
2023-06-26T18:44:39.474Z,43.00
2023-06-26T18:47:16.100Z,43.40
2023-06-26T18:49:51.088Z,43.80
2023-06-26T18:52:23.434Z,44.00
2023-06-26T18:54:55.721Z,44.40
2023-06-26T18:57:32.108Z,44.90
2023-06-26T19:00:35.040Z,44.50
2023-06-26T19:03:07.630Z,44.70
2023-06-26T19:05:45.482Z,44.80
2023-06-26T19:08:23.688Z,45.00
2023-06-26T19:11:16.932Z,45.20
2023-06-26T19:13:49.307Z,45.10
2023-06-26T19:16:26.186Z,45.30
2023-06-26T19:19:00.855Z,45.20
2023-06-26T19:21:36.734Z,45.30
2023-06-26T19:24:09.103Z,45.30
2023-06-26T19:26:56.910Z,45.40
2023-06-26T19:29:29.216Z,45.40
2023-06-26T19:32:04.594Z,45.50
2023-06-26T19:34:37.183Z,45.40
2023-06-26T19:37:12.535Z,45.40
2023-06-26T19:39:54.406Z,45.50
2023-06-26T19:42:26.800Z,45.50
2023-06-26T19:45:06.672Z,45.60
2023-06-26T19:47:39.159Z,45.70
2023-06-26T19:50:15.152Z,46.50
2023-06-26T19:52:50.382Z,45.90
2023-06-26T19:55:22.862Z,46.60
2023-06-26T19:57:55.249Z,46.20
2023-06-26T20:00:27.692Z,46.30
2023-06-26T20:03:00.144Z,46.30
2023-06-26T20:05:34.184Z,46.70
2023-06-26T20:08:10.276Z,46.90
2023-06-26T20:10:42.640Z,46.60
2023-06-26T20:13:16.699Z,46.40
2023-06-26T20:15:48.994Z,46.00
2023-06-26T20:18:23.019Z,45.60
2023-06-26T20:20:55.292Z,45.60
2023-06-26T20:23:30.064Z,44.70
2023-06-26T20:26:02.314Z,44.30
2023-06-26T20:28:34.818Z,44.20
2023-06-26T20:31:09.574Z,44.00
2023-06-26T20:33:41.834Z,43.90
2023-06-26T20:36:14.008Z,43.80
2023-06-26T20:38:48.934Z,43.60
2023-06-26T20:41:21.723Z,43.60
2023-06-26T20:43:54.985Z,43.50
2023-06-26T20:46:33.031Z,43.40
2023-06-26T20:49:05.970Z,43.40
2023-06-26T20:51:39.117Z,43.30
2023-06-26T20:54:17.757Z,43.30
2023-06-26T20:56:50.005Z,43.40
2023-06-26T20:59:24.933Z,43.40
2023-06-26T21:01:57.198Z,43.90
2023-06-26T21:04:29.413Z,43.10
2023-06-26T21:07:03.315Z,43.20
2023-06-26T21:09:38.033Z,43.40
2023-06-26T21:12:10.760Z,44.10
2023-06-26T21:14:42.938Z,44.70
2023-06-26T21:17:15.757Z,45.70
2023-06-26T21:19:48.751Z,46.20
2023-06-26T21:22:21.305Z,46.60
2023-06-26T21:24:57.381Z,47.10
2023-06-26T21:27:29.530Z,47.50
2023-06-26T21:30:01.859Z,48.00
2023-06-26T21:32:36.361Z,48.60
2023-06-26T21:35:09.673Z,49.10
2023-06-26T21:37:42.251Z,49.40
2023-06-26T21:40:17.334Z,50.00
2023-06-26T21:42:49.452Z,50.40
2023-06-26T21:45:21.572Z,50.60
2023-06-26T21:47:53.796Z,50.80
2023-06-26T21:50:25.926Z,51.00
2023-06-26T21:52:58.068Z,51.20
2023-06-26T21:55:32.944Z,51.80
2023-06-26T21:58:05.140Z,52.50
2023-06-26T22:00:37.419Z,53.00
2023-06-26T22:03:09.739Z,53.40
2023-06-26T22:05:42.112Z,53.60
2023-06-26T22:08:14.627Z,53.80
2023-06-26T22:10:49.353Z,54.20
2023-06-26T22:13:21.502Z,54.40
2023-06-26T22:15:53.604Z,54.80
2023-06-26T22:18:25.910Z,55.00
2023-06-26T22:20:58.029Z,55.60
2023-06-26T22:23:30.143Z,55.10
2023-06-26T22:26:04.884Z,55.60
2023-06-26T22:28:37.105Z,56.10
2023-06-26T22:31:09.308Z,56.60
2023-06-26T22:33:41.459Z,56.80
2023-06-26T22:36:13.550Z,57.00
2023-06-26T22:38:45.654Z,57.40
2023-06-26T22:41:20.423Z,57.80
2023-06-26T22:43:52.626Z,57.70
2023-06-26T22:46:24.790Z,58.10
2023-06-26T22:48:56.957Z,58.30
2023-06-26T22:51:29.086Z,58.50
2023-06-26T22:54:01.182Z,58.80
2023-06-26T22:56:49.958Z,59.50
2023-06-26T22:59:27.526Z,59.80
2023-06-26T23:01:59.622Z,60.00
2023-06-26T23:04:31.741Z,59.40
2023-06-26T23:07:04.703Z,59.00
2023-06-26T23:09:36.897Z,58.60
2023-06-26T23:12:11.857Z,58.60
2023-06-26T23:14:44.034Z,58.60
2023-06-26T23:17:16.168Z,58.60
2023-06-26T23:19:50.086Z,58.60
2023-06-26T23:22:22.247Z,58.70
2023-06-26T23:24:58.906Z,58.80
2023-06-26T23:27:33.900Z,58.70
2023-06-26T23:30:09.457Z,58.80
2023-06-26T23:32:41.729Z,59.00
2023-06-26T23:35:13.961Z,59.20
2023-06-26T23:37:46.222Z,59.40
2023-06-26T23:40:18.340Z,59.60
2023-06-26T23:42:53.289Z,59.60
2023-06-26T23:45:25.403Z,59.50
2023-06-26T23:47:57.776Z,59.10
2023-06-26T23:50:30.185Z,59.20
2023-06-26T23:53:02.483Z,59.70
2023-06-26T23:55:34.636Z,60.00
2023-06-26T23:58:09.412Z,60.50
